sensor_id;sensor_type;location;lat;lon;timestamp;P1;durP1;ratioP1;P2;durP2;ratioP2
69573;SDS011;62840;52.366;5.980;2023-04-01T00:00:25;3.92;;;1.30;;
69573;SDS011;62840;52.366;5.980;2023-04-01T00:02:51;3.13;;;1.37;;
69573;SDS011;62840;52.366;5.980;2023-04-01T00:05:16;3.17;;;1.25;;
69573;SDS011;62840;52.366;5.980;2023-04-01T00:07:43;3.45;;;1.23;;
69573;SDS011;62840;52.366;5.980;2023-04-01T00:10:09;3.43;;;1.73;;
69573;SDS011;62840;52.366;5.980;2023-04-01T00:12:38;3.42;;;1.35;;
69573;SDS011;62840;52.366;5.980;2023-04-01T00:15:05;3.30;;;1.60;;
69573;SDS011;62840;52.366;5.980;2023-04-01T00:17:38;3.97;;;1.52;;
69573;SDS011;62840;52.366;5.980;2023-04-01T00:20:04;3.38;;;1.25;;
69573;SDS011;62840;52.366;5.980;2023-04-01T00:22:32;4.77;;;1.60;;
69573;SDS011;62840;52.366;5.980;2023-04-01T00:24:58;3.58;;;1.40;;
69573;SDS011;62840;52.366;5.980;2023-04-01T00:27:23;3.80;;;1.40;;
69573;SDS011;62840;52.366;5.980;2023-04-01T00:29:49;3.33;;;1.37;;
69573;SDS011;62840;52.366;5.980;2023-04-01T00:32:15;4.45;;;1.42;;
69573;SDS011;62840;52.366;5.980;2023-04-01T00:34:43;3.57;;;1.40;;
69573;SDS011;62840;52.366;5.980;2023-04-01T00:37:09;3.47;;;1.52;;
69573;SDS011;62840;52.366;5.980;2023-04-01T00:39:35;3.60;;;1.48;;
69573;SDS011;62840;52.366;5.980;2023-04-01T00:42:01;4.37;;;1.60;;
69573;SDS011;62840;52.366;5.980;2023-04-01T00:44:30;3.80;;;1.65;;
69573;SDS011;62840;52.366;5.980;2023-04-01T00:46:59;3.88;;;1.75;;
69573;SDS011;62840;52.366;5.980;2023-04-01T00:49:27;3.78;;;1.58;;
69573;SDS011;62840;52.366;5.980;2023-04-01T00:52:01;4.82;;;1.90;;
69573;SDS011;62840;52.366;5.980;2023-04-01T00:54:30;4.38;;;1.65;;
69573;SDS011;62840;52.366;5.980;2023-04-01T00:56:59;4.30;;;1.75;;
69573;SDS011;62840;52.366;5.980;2023-04-01T00:59:31;4.53;;;2.10;;
69573;SDS011;62840;52.366;5.980;2023-04-01T01:02:02;5.03;;;1.95;;
69573;SDS011;62840;52.366;5.980;2023-04-01T01:04:33;5.20;;;2.10;;
69573;SDS011;62840;52.366;5.980;2023-04-01T01:07:06;8.20;;;2.50;;
69573;SDS011;62840;52.366;5.980;2023-04-01T01:09:48;5.63;;;2.03;;
69573;SDS011;62840;52.366;5.980;2023-04-01T01:12:28;4.97;;;2.40;;
69573;SDS011;62840;52.366;5.980;2023-04-01T01:15:02;5.55;;;2.20;;
69573;SDS011;62840;52.366;5.980;2023-04-01T01:17:44;7.95;;;3.17;;
69573;SDS011;62840;52.366;5.980;2023-04-01T01:20:31;6.10;;;3.00;;
69573;SDS011;62840;52.366;5.980;2023-04-01T01:26:52;7.25;;;2.78;;
69573;SDS011;62840;52.366;5.980;2023-04-01T01:29:34;7.07;;;2.53;;
69573;SDS011;62840;52.366;5.980;2023-04-01T01:35:47;7.32;;;3.03;;
69573;SDS011;62840;52.366;5.980;2023-04-01T01:38:16;6.50;;;3.00;;
69573;SDS011;62840;52.366;5.980;2023-04-01T01:40:48;7.43;;;3.00;;
69573;SDS011;62840;52.366;5.980;2023-04-01T01:43:18;9.02;;;3.72;;
69573;SDS011;62840;52.366;5.980;2023-04-01T01:45:51;8.25;;;3.67;;
69573;SDS011;62840;52.366;5.980;2023-04-01T01:48:22;10.05;;;3.80;;
69573;SDS011;62840;52.366;5.980;2023-04-01T01:50:54;7.20;;;3.33;;
69573;SDS011;62840;52.366;5.980;2023-04-01T01:53:20;8.68;;;3.35;;
69573;SDS011;62840;52.366;5.980;2023-04-01T01:55:47;8.70;;;3.33;;
69573;SDS011;62840;52.366;5.980;2023-04-01T01:58:14;8.68;;;3.38;;
69573;SDS011;62840;52.366;5.980;2023-04-01T02:00:48;6.75;;;3.25;;
69573;SDS011;62840;52.366;5.980;2023-04-01T02:03:20;7.82;;;3.10;;
69573;SDS011;62840;52.366;5.980;2023-04-01T02:05:50;8.57;;;3.30;;
69573;SDS011;62840;52.366;5.980;2023-04-01T02:08:23;9.13;;;3.80;;
69573;SDS011;62840;52.366;5.980;2023-04-01T02:10:57;7.13;;;3.40;;
69573;SDS011;62840;52.366;5.980;2023-04-01T02:13:28;7.78;;;3.72;;
69573;SDS011;62840;52.366;5.980;2023-04-01T02:16:02;8.20;;;3.33;;
69573;SDS011;62840;52.366;5.980;2023-04-01T02:18:34;8.45;;;3.15;;
69573;SDS011;62840;52.366;5.980;2023-04-01T02:21:03;7.15;;;3.47;;
69573;SDS011;62840;52.366;5.980;2023-04-01T02:23:35;7.38;;;3.78;;
69573;SDS011;62840;52.366;5.980;2023-04-01T02:26:03;7.03;;;3.45;;
69573;SDS011;62840;52.366;5.980;2023-04-01T02:28:33;9.05;;;3.45;;
69573;SDS011;62840;52.366;5.980;2023-04-01T02:31:03;7.18;;;3.05;;
69573;SDS011;62840;52.366;5.980;2023-04-01T02:33:29;8.77;;;3.38;;
69573;SDS011;62840;52.366;5.980;2023-04-01T02:35:56;8.85;;;3.38;;
69573;SDS011;62840;52.366;5.980;2023-04-01T02:38:23;8.38;;;3.90;;
69573;SDS011;62840;52.366;5.980;2023-04-01T02:40:57;8.57;;;3.35;;
69573;SDS011;62840;52.366;5.980;2023-04-01T02:43:24;7.67;;;3.10;;
69573;SDS011;62840;52.366;5.980;2023-04-01T02:45:50;7.38;;;3.25;;
69573;SDS011;62840;52.366;5.980;2023-04-01T02:48:16;8.00;;;3.45;;
69573;SDS011;62840;52.366;5.980;2023-04-01T02:50:42;8.07;;;3.20;;
69573;SDS011;62840;52.366;5.980;2023-04-01T02:53:08;7.57;;;3.22;;
69573;SDS011;62840;52.366;5.980;2023-04-01T02:55:34;8.38;;;3.50;;
69573;SDS011;62840;52.366;5.980;2023-04-01T02:58:02;9.63;;;3.63;;
69573;SDS011;62840;52.366;5.980;2023-04-01T03:00:29;9.32;;;3.67;;
69573;SDS011;62840;52.366;5.980;2023-04-01T03:02:55;10.40;;;3.78;;
69573;SDS011;62840;52.366;5.980;2023-04-01T03:05:21;8.53;;;3.57;;
69573;SDS011;62840;52.366;5.980;2023-04-01T03:07:46;9.35;;;3.72;;
69573;SDS011;62840;52.366;5.980;2023-04-01T03:10:12;7.97;;;3.58;;
69573;SDS011;62840;52.366;5.980;2023-04-01T03:12:38;8.33;;;3.67;;
69573;SDS011;62840;52.366;5.980;2023-04-01T03:15:08;8.02;;;3.40;;
69573;SDS011;62840;52.366;5.980;2023-04-01T03:17:36;9.10;;;3.50;;
69573;SDS011;62840;52.366;5.980;2023-04-01T03:20:02;8.10;;;3.30;;
69573;SDS011;62840;52.366;5.980;2023-04-01T03:22:28;8.73;;;3.35;;
69573;SDS011;62840;52.366;5.980;2023-04-01T03:24:54;8.40;;;3.27;;
69573;SDS011;62840;52.366;5.980;2023-04-01T03:27:20;9.80;;;3.55;;
69573;SDS011;62840;52.366;5.980;2023-04-01T03:29:45;9.23;;;3.23;;
69573;SDS011;62840;52.366;5.980;2023-04-01T03:32:14;7.53;;;3.40;;
69573;SDS011;62840;52.366;5.980;2023-04-01T03:34:40;7.28;;;3.58;;
69573;SDS011;62840;52.366;5.980;2023-04-01T03:37:06;8.07;;;3.67;;
69573;SDS011;62840;52.366;5.980;2023-04-01T03:39:31;8.82;;;3.50;;
69573;SDS011;62840;52.366;5.980;2023-04-01T03:41:57;8.05;;;3.20;;
69573;SDS011;62840;52.366;5.980;2023-04-01T03:44:23;7.13;;;3.05;;
69573;SDS011;62840;52.366;5.980;2023-04-01T03:46:49;7.70;;;3.50;;
69573;SDS011;62840;52.366;5.980;2023-04-01T03:49:18;8.05;;;3.50;;
69573;SDS011;62840;52.366;5.980;2023-04-01T03:51:43;7.90;;;3.00;;
69573;SDS011;62840;52.366;5.980;2023-04-01T03:54:09;7.05;;;3.15;;
69573;SDS011;62840;52.366;5.980;2023-04-01T03:56:36;6.15;;;2.97;;
69573;SDS011;62840;52.366;5.980;2023-04-01T03:59:03;6.70;;;3.10;;
69573;SDS011;62840;52.366;5.980;2023-04-01T04:01:30;7.30;;;3.20;;
69573;SDS011;62840;52.366;5.980;2023-04-01T04:03:56;8.57;;;3.50;;
69573;SDS011;62840;52.366;5.980;2023-04-01T04:06:25;6.43;;;2.70;;
69573;SDS011;62840;52.366;5.980;2023-04-01T04:08:52;7.82;;;3.08;;
69573;SDS011;62840;52.366;5.980;2023-04-01T04:11:18;8.40;;;3.20;;
69573;SDS011;62840;52.366;5.980;2023-04-01T04:13:45;6.93;;;3.30;;
69573;SDS011;62840;52.366;5.980;2023-04-01T04:16:11;7.07;;;3.05;;
69573;SDS011;62840;52.366;5.980;2023-04-01T04:18:37;7.13;;;3.25;;
69573;SDS011;62840;52.366;5.980;2023-04-01T04:21:03;6.23;;;2.80;;
69573;SDS011;62840;52.366;5.980;2023-04-01T04:23:31;7.05;;;3.10;;
69573;SDS011;62840;52.366;5.980;2023-04-01T04:25:58;7.28;;;3.47;;
69573;SDS011;62840;52.366;5.980;2023-04-01T04:28:28;7.63;;;3.30;;
69573;SDS011;62840;52.366;5.980;2023-04-01T04:30:55;8.10;;;3.50;;
69573;SDS011;62840;52.366;5.980;2023-04-01T04:33:22;7.65;;;3.55;;
69573;SDS011;62840;52.366;5.980;2023-04-01T04:35:49;7.45;;;3.47;;
69573;SDS011;62840;52.366;5.980;2023-04-01T04:38:16;8.18;;;3.42;;
69573;SDS011;62840;52.366;5.980;2023-04-01T04:40:45;8.55;;;3.72;;
69573;SDS011;62840;52.366;5.980;2023-04-01T04:43:11;7.50;;;3.70;;
69573;SDS011;62840;52.366;5.980;2023-04-01T04:45:38;8.82;;;3.40;;
69573;SDS011;62840;52.366;5.980;2023-04-01T04:48:04;9.27;;;3.63;;
69573;SDS011;62840;52.366;5.980;2023-04-01T04:50:32;8.07;;;3.30;;
69573;SDS011;62840;52.366;5.980;2023-04-01T04:52:58;9.07;;;4.00;;
69573;SDS011;62840;52.366;5.980;2023-04-01T04:55:23;8.77;;;4.20;;
69573;SDS011;62840;52.366;5.980;2023-04-01T04:57:52;9.93;;;3.97;;
69573;SDS011;62840;52.366;5.980;2023-04-01T05:00:18;10.35;;;4.07;;
69573;SDS011;62840;52.366;5.980;2023-04-01T05:02:44;10.82;;;3.63;;
69573;SDS011;62840;52.366;5.980;2023-04-01T05:05:09;8.10;;;4.07;;
69573;SDS011;62840;52.366;5.980;2023-04-01T05:07:35;9.88;;;4.35;;
69573;SDS011;62840;52.366;5.980;2023-04-01T05:10:01;9.27;;;3.92;;
69573;SDS011;62840;52.366;5.980;2023-04-01T05:12:28;7.20;;;3.73;;
69573;SDS011;62840;52.366;5.980;2023-04-01T05:14:56;8.02;;;3.75;;
69573;SDS011;62840;52.366;5.980;2023-04-01T05:17:22;8.77;;;4.20;;
69573;SDS011;62840;52.366;5.980;2023-04-01T05:19:47;8.70;;;3.80;;
69573;SDS011;62840;52.366;5.980;2023-04-01T05:22:13;9.95;;;3.80;;
69573;SDS011;62840;52.366;5.980;2023-04-01T05:24:39;9.17;;;3.90;;
69573;SDS011;62840;52.366;5.980;2023-04-01T05:27:04;9.32;;;3.80;;
69573;SDS011;62840;52.366;5.980;2023-04-01T05:29:30;8.57;;;4.03;;
69573;SDS011;62840;52.366;5.980;2023-04-01T05:31:59;9.00;;;4.20;;
69573;SDS011;62840;52.366;5.980;2023-04-01T05:34:24;10.43;;;3.72;;
69573;SDS011;62840;52.366;5.980;2023-04-01T05:36:50;10.00;;;4.13;;
69573;SDS011;62840;52.366;5.980;2023-04-01T05:39:16;8.88;;;3.53;;
69573;SDS011;62840;52.366;5.980;2023-04-01T05:41:41;9.57;;;4.10;;
69573;SDS011;62840;52.366;5.980;2023-04-01T05:44:07;8.02;;;3.47;;
69573;SDS011;62840;52.366;5.980;2023-04-01T05:46:37;7.90;;;3.38;;
69573;SDS011;62840;52.366;5.980;2023-04-01T05:49:05;10.00;;;3.53;;
69573;SDS011;62840;52.366;5.980;2023-04-01T05:51:31;9.38;;;3.58;;
69573;SDS011;62840;52.366;5.980;2023-04-01T05:53:57;7.07;;;3.13;;
69573;SDS011;62840;52.366;5.980;2023-04-01T05:56:23;11.40;;;4.28;;
69573;SDS011;62840;52.366;5.980;2023-04-01T05:58:50;7.73;;;3.33;;
69573;SDS011;62840;52.366;5.980;2023-04-01T06:01:18;8.32;;;3.60;;
69573;SDS011;62840;52.366;5.980;2023-04-01T06:03:44;8.13;;;3.33;;
69573;SDS011;62840;52.366;5.980;2023-04-01T06:06:14;7.80;;;3.40;;
69573;SDS011;62840;52.366;5.980;2023-04-01T06:08:47;7.93;;;3.33;;
69573;SDS011;62840;52.366;5.980;2023-04-01T06:11:17;7.15;;;3.10;;
69573;SDS011;62840;52.366;5.980;2023-04-01T06:13:58;8.20;;;3.42;;
69573;SDS011;62840;52.366;5.980;2023-04-01T06:16:39;10.55;;;3.42;;
69573;SDS011;62840;52.366;5.980;2023-04-01T06:19:27;7.90;;;3.00;;
69573;SDS011;62840;52.366;5.980;2023-04-01T06:22:24;8.18;;;3.20;;
69573;SDS011;62840;52.366;5.980;2023-04-01T06:31:20;8.60;;;3.17;;
69573;SDS011;62840;52.366;5.980;2023-04-01T06:34:22;8.30;;;3.27;;
69573;SDS011;62840;52.366;5.980;2023-04-01T06:37:20;7.40;;;3.05;;
69573;SDS011;62840;52.366;5.980;2023-04-01T06:43:30;7.93;;;3.20;;
69573;SDS011;62840;52.366;5.980;2023-04-01T06:46:14;7.82;;;3.05;;
69573;SDS011;62840;52.366;5.980;2023-04-01T06:49:02;9.87;;;3.50;;
69573;SDS011;62840;52.366;5.980;2023-04-01T06:51:47;8.32;;;3.35;;
69573;SDS011;62840;52.366;5.980;2023-04-01T06:54:28;8.95;;;3.30;;
69573;SDS011;62840;52.366;5.980;2023-04-01T06:57:01;9.30;;;3.45;;
69573;SDS011;62840;52.366;5.980;2023-04-01T06:59:43;7.85;;;3.30;;
69573;SDS011;62840;52.366;5.980;2023-04-01T07:02:18;8.07;;;3.67;;
69573;SDS011;62840;52.366;5.980;2023-04-01T07:04:55;10.25;;;3.88;;
69573;SDS011;62840;52.366;5.980;2023-04-01T07:07:27;8.82;;;3.60;;
69573;SDS011;62840;52.366;5.980;2023-04-01T07:10:05;8.05;;;3.30;;
69573;SDS011;62840;52.366;5.980;2023-04-01T07:12:43;7.38;;;2.60;;
69573;SDS011;62840;52.366;5.980;2023-04-01T07:15:17;6.10;;;2.30;;
69573;SDS011;62840;52.366;5.980;2023-04-01T07:17:47;7.70;;;2.83;;
69573;SDS011;62840;52.366;5.980;2023-04-01T07:20:22;6.10;;;2.78;;
69573;SDS011;62840;52.366;5.980;2023-04-01T07:22:54;6.35;;;2.67;;
69573;SDS011;62840;52.366;5.980;2023-04-01T07:25:27;8.73;;;2.97;;
69573;SDS011;62840;52.366;5.980;2023-04-01T07:28:00;7.27;;;2.50;;
69573;SDS011;62840;52.366;5.980;2023-04-01T07:30:30;6.20;;;2.33;;
69573;SDS011;62840;52.366;5.980;2023-04-01T07:33:12;6.28;;;2.25;;
69573;SDS011;62840;52.366;5.980;2023-04-01T07:35:45;6.13;;;2.30;;
69573;SDS011;62840;52.366;5.980;2023-04-01T07:38:24;5.43;;;2.00;;
69573;SDS011;62840;52.366;5.980;2023-04-01T07:41:11;5.90;;;1.83;;
69573;SDS011;62840;52.366;5.980;2023-04-01T07:43:53;5.25;;;1.95;;
69573;SDS011;62840;52.366;5.980;2023-04-01T07:46:39;5.68;;;2.28;;
69573;SDS011;62840;52.366;5.980;2023-04-01T07:49:22;5.95;;;2.15;;
69573;SDS011;62840;52.366;5.980;2023-04-01T07:51:59;5.70;;;2.03;;
69573;SDS011;62840;52.366;5.980;2023-04-01T07:54:38;6.30;;;2.23;;
69573;SDS011;62840;52.366;5.980;2023-04-01T07:57:18;7.40;;;2.38;;
69573;SDS011;62840;52.366;5.980;2023-04-01T07:59:55;7.43;;;2.72;;
69573;SDS011;62840;52.366;5.980;2023-04-01T08:02:36;7.35;;;2.30;;
69573;SDS011;62840;52.366;5.980;2023-04-01T08:05:28;6.63;;;2.50;;
69573;SDS011;62840;52.366;5.980;2023-04-01T08:08:06;5.83;;;2.43;;
69573;SDS011;62840;52.366;5.980;2023-04-01T08:10:44;5.82;;;1.95;;
69573;SDS011;62840;52.366;5.980;2023-04-01T08:13:21;5.82;;;2.20;;
69573;SDS011;62840;52.366;5.980;2023-04-01T08:16:03;6.32;;;2.15;;
69573;SDS011;62840;52.366;5.980;2023-04-01T08:18:44;4.40;;;2.20;;
69573;SDS011;62840;52.366;5.980;2023-04-01T08:21:27;5.27;;;1.83;;
69573;SDS011;62840;52.366;5.980;2023-04-01T08:23:57;4.82;;;1.73;;
69573;SDS011;62840;52.366;5.980;2023-04-01T08:26:36;4.88;;;1.70;;
69573;SDS011;62840;52.366;5.980;2023-04-01T08:29:12;5.03;;;1.95;;
69573;SDS011;62840;52.366;5.980;2023-04-01T08:31:45;5.78;;;2.10;;
69573;SDS011;62840;52.366;5.980;2023-04-01T08:34:22;4.50;;;1.50;;
69573;SDS011;62840;52.366;5.980;2023-04-01T08:36:57;5.28;;;2.00;;
69573;SDS011;62840;52.366;5.980;2023-04-01T08:39:30;4.00;;;1.50;;
69573;SDS011;62840;52.366;5.980;2023-04-01T08:42:18;4.00;;;1.50;;
69573;SDS011;62840;52.366;5.980;2023-04-01T08:45:24;4.45;;;1.10;;
69573;SDS011;62840;52.366;5.980;2023-04-01T08:48:13;3.43;;;1.20;;
69573;SDS011;62840;52.366;5.980;2023-04-01T08:51:17;3.53;;;1.00;;
69573;SDS011;62840;52.366;5.980;2023-04-01T08:54:32;2.70;;;0.90;;
69573;SDS011;62840;52.366;5.980;2023-04-01T08:57:12;3.25;;;1.00;;
69573;SDS011;62840;52.366;5.980;2023-04-01T08:59:57;3.45;;;1.00;;
69573;SDS011;62840;52.366;5.980;2023-04-01T09:06:04;3.00;;;0.90;;
69573;SDS011;62840;52.366;5.980;2023-04-01T09:15:27;2.92;;;0.90;;
69573;SDS011;62840;52.366;5.980;2023-04-01T09:18:37;3.07;;;1.03;;
69573;SDS011;62840;52.366;5.980;2023-04-01T09:27:56;3.60;;;1.00;;
69573;SDS011;62840;52.366;5.980;2023-04-01T09:30:45;3.50;;;1.02;;
69573;SDS011;62840;52.366;5.980;2023-04-01T09:33:49;2.80;;;0.73;;
69573;SDS011;62840;52.366;5.980;2023-04-01T09:36:47;3.03;;;1.00;;
69573;SDS011;62840;52.366;5.980;2023-04-01T09:39:35;2.75;;;1.00;;
69573;SDS011;62840;52.366;5.980;2023-04-01T09:42:08;3.60;;;0.90;;
69573;SDS011;62840;52.366;5.980;2023-04-01T09:45:07;2.97;;;0.90;;
69573;SDS011;62840;52.366;5.980;2023-04-01T09:47:51;3.50;;;1.30;;
69573;SDS011;62840;52.366;5.980;2023-04-01T09:50:42;4.38;;;1.10;;
69573;SDS011;62840;52.366;5.980;2023-04-01T09:53:28;3.55;;;1.10;;
69573;SDS011;62840;52.366;5.980;2023-04-01T10:06:48;3.75;;;1.30;;
69573;SDS011;62840;52.366;5.980;2023-04-01T10:16:26;4.95;;;1.45;;
69573;SDS011;62840;52.366;5.980;2023-04-01T10:22:53;4.88;;;1.75;;
69573;SDS011;62840;52.366;5.980;2023-04-01T10:29:13;4.57;;;1.60;;
69573;SDS011;62840;52.366;5.980;2023-04-01T10:32:27;4.22;;;1.40;;
69573;SDS011;62840;52.366;5.980;2023-04-01T10:35:46;5.40;;;1.43;;
69573;SDS011;62840;52.366;5.980;2023-04-01T10:39:08;3.97;;;1.38;;
69573;SDS011;62840;52.366;5.980;2023-04-01T10:45:37;4.55;;;1.90;;
69573;SDS011;62840;52.366;5.980;2023-04-01T10:48:52;4.00;;;1.50;;
69573;SDS011;62840;52.366;5.980;2023-04-01T10:51:52;3.33;;;1.10;;
69573;SDS011;62840;52.366;5.980;2023-04-01T10:54:51;4.20;;;1.77;;
69573;SDS011;62840;52.366;5.980;2023-04-01T10:58:02;4.43;;;1.90;;
69573;SDS011;62840;52.366;5.980;2023-04-01T11:01:07;2.90;;;0.93;;
69573;SDS011;62840;52.366;5.980;2023-04-01T11:07:43;4.47;;;1.27;;
69573;SDS011;62840;52.366;5.980;2023-04-01T11:10:57;3.88;;;1.10;;
69573;SDS011;62840;52.366;5.980;2023-04-01T11:14:23;4.68;;;1.42;;
69573;SDS011;62840;52.366;5.980;2023-04-01T11:27:28;4.63;;;1.52;;
69573;SDS011;62840;52.366;5.980;2023-04-01T11:30:20;4.78;;;1.65;;
69573;SDS011;62840;52.366;5.980;2023-04-01T11:33:02;4.63;;;1.60;;
69573;SDS011;62840;52.366;5.980;2023-04-01T11:35:43;4.30;;;1.42;;
69573;SDS011;62840;52.366;5.980;2023-04-01T11:38:38;4.27;;;1.50;;
69573;SDS011;62840;52.366;5.980;2023-04-01T11:41:27;4.45;;;1.48;;
69573;SDS011;62840;52.366;5.980;2023-04-01T11:44:16;4.07;;;1.60;;
69573;SDS011;62840;52.366;5.980;2023-04-01T11:46:51;4.20;;;1.45;;
69573;SDS011;62840;52.366;5.980;2023-04-01T11:49:47;4.40;;;1.40;;
69573;SDS011;62840;52.366;5.980;2023-04-01T11:52:38;5.80;;;1.30;;
69573;SDS011;62840;52.366;5.980;2023-04-01T11:55:37;3.80;;;1.30;;
69573;SDS011;62840;52.366;5.980;2023-04-01T11:58:21;4.43;;;1.80;;
69573;SDS011;62840;52.366;5.980;2023-04-01T12:01:06;3.90;;;1.27;;
69573;SDS011;62840;52.366;5.980;2023-04-01T12:07:14;5.03;;;1.50;;
69573;SDS011;62840;52.366;5.980;2023-04-01T12:09:54;4.53;;;1.40;;
69573;SDS011;62840;52.366;5.980;2023-04-01T12:12:32;4.78;;;1.63;;
69573;SDS011;62840;52.366;5.980;2023-04-01T12:15:12;4.30;;;1.65;;
69573;SDS011;62840;52.366;5.980;2023-04-01T12:17:54;3.45;;;1.20;;
69573;SDS011;62840;52.366;5.980;2023-04-01T12:20:37;4.47;;;1.47;;
69573;SDS011;62840;52.366;5.980;2023-04-01T12:23:19;4.43;;;1.48;;
69573;SDS011;62840;52.366;5.980;2023-04-01T12:26:19;4.18;;;1.67;;
69573;SDS011;62840;52.366;5.980;2023-04-01T12:29:12;4.45;;;1.50;;
69573;SDS011;62840;52.366;5.980;2023-04-01T12:32:09;4.38;;;1.98;;
69573;SDS011;62840;52.366;5.980;2023-04-01T12:35:00;4.33;;;1.63;;
69573;SDS011;62840;52.366;5.980;2023-04-01T12:37:45;4.15;;;1.63;;
69573;SDS011;62840;52.366;5.980;2023-04-01T12:40:31;4.43;;;1.63;;
69573;SDS011;62840;52.366;5.980;2023-04-01T12:46:54;4.78;;;1.90;;
69573;SDS011;62840;52.366;5.980;2023-04-01T12:49:48;4.90;;;1.73;;
69573;SDS011;62840;52.366;5.980;2023-04-01T12:52:41;4.40;;;1.85;;
69573;SDS011;62840;52.366;5.980;2023-04-01T12:55:40;4.50;;;1.90;;
69573;SDS011;62840;52.366;5.980;2023-04-01T13:01:19;5.00;;;2.10;;
69573;SDS011;62840;52.366;5.980;2023-04-01T13:07:25;4.70;;;2.10;;
69573;SDS011;62840;52.366;5.980;2023-04-01T13:10:20;6.47;;;2.20;;
69573;SDS011;62840;52.366;5.980;2023-04-01T13:13:08;6.03;;;2.05;;
69573;SDS011;62840;52.366;5.980;2023-04-01T13:16:05;4.18;;;1.92;;
69573;SDS011;62840;52.366;5.980;2023-04-01T13:18:40;5.47;;;2.07;;
69573;SDS011;62840;52.366;5.980;2023-04-01T13:21:23;4.78;;;1.73;;
69573;SDS011;62840;52.366;5.980;2023-04-01T13:24:08;4.30;;;1.88;;
69573;SDS011;62840;52.366;5.980;2023-04-01T13:26:53;4.90;;;2.13;;
69573;SDS011;62840;52.366;5.980;2023-04-01T13:29:31;4.88;;;2.03;;
69573;SDS011;62840;52.366;5.980;2023-04-01T13:32:13;5.80;;;2.53;;
69573;SDS011;62840;52.366;5.980;2023-04-01T13:34:55;4.50;;;2.13;;
69573;SDS011;62840;52.366;5.980;2023-04-01T13:37:42;5.55;;;2.60;;
69573;SDS011;62840;52.366;5.980;2023-04-01T13:40:39;5.88;;;2.70;;
69573;SDS011;62840;52.366;5.980;2023-04-01T13:43:19;5.13;;;2.38;;
69573;SDS011;62840;52.366;5.980;2023-04-01T13:49:02;5.53;;;2.58;;
69573;SDS011;62840;52.366;5.980;2023-04-01T13:55:18;5.97;;;2.78;;
69573;SDS011;62840;52.366;5.980;2023-04-01T14:01:23;5.60;;;3.00;;
69573;SDS011;62840;52.366;5.980;2023-04-01T14:04:20;4.68;;;2.33;;
69573;SDS011;62840;52.366;5.980;2023-04-01T14:07:10;5.60;;;2.55;;
69573;SDS011;62840;52.366;5.980;2023-04-01T14:10:07;5.13;;;2.22;;
69573;SDS011;62840;52.366;5.980;2023-04-01T14:12:47;4.90;;;2.58;;
69573;SDS011;62840;52.366;5.980;2023-04-01T14:15:33;4.70;;;2.10;;
69573;SDS011;62840;52.366;5.980;2023-04-01T14:18:24;4.70;;;2.25;;
69573;SDS011;62840;52.366;5.980;2023-04-01T14:21:30;4.68;;;2.17;;
69573;SDS011;62840;52.366;5.980;2023-04-01T14:24:08;5.57;;;2.17;;
69573;SDS011;62840;52.366;5.980;2023-04-01T14:27:09;5.13;;;2.17;;
69573;SDS011;62840;52.366;5.980;2023-04-01T14:30:03;4.90;;;2.30;;
69573;SDS011;62840;52.366;5.980;2023-04-01T14:33:00;4.90;;;2.20;;
69573;SDS011;62840;52.366;5.980;2023-04-01T14:35:37;5.00;;;2.28;;
69573;SDS011;62840;52.366;5.980;2023-04-01T14:38:15;4.97;;;2.22;;
69573;SDS011;62840;52.366;5.980;2023-04-01T14:41:02;5.25;;;2.38;;
69573;SDS011;62840;52.366;5.980;2023-04-01T14:43:53;4.50;;;1.90;;
69573;SDS011;62840;52.366;5.980;2023-04-01T14:46:50;4.38;;;2.03;;
69573;SDS011;62840;52.366;5.980;2023-04-01T14:49:39;4.00;;;1.95;;
69573;SDS011;62840;52.366;5.980;2023-04-01T14:52:11;4.28;;;2.08;;
69573;SDS011;62840;52.366;5.980;2023-04-01T14:54:47;4.47;;;2.03;;
69573;SDS011;62840;52.366;5.980;2023-04-01T14:57:16;3.80;;;1.63;;
69573;SDS011;62840;52.366;5.980;2023-04-01T14:59:51;4.13;;;1.70;;
69573;SDS011;62840;52.366;5.980;2023-04-01T15:02:33;4.60;;;2.30;;
69573;SDS011;62840;52.366;5.980;2023-04-01T15:05:31;4.95;;;2.20;;
69573;SDS011;62840;52.366;5.980;2023-04-01T15:08:17;5.15;;;2.15;;
69573;SDS011;62840;52.366;5.980;2023-04-01T15:10:53;4.83;;;2.30;;
69573;SDS011;62840;52.366;5.980;2023-04-01T15:13:58;4.07;;;2.00;;
69573;SDS011;62840;52.366;5.980;2023-04-01T15:17:02;4.45;;;2.17;;
69573;SDS011;62840;52.366;5.980;2023-04-01T15:19:54;4.30;;;1.90;;
69573;SDS011;62840;52.366;5.980;2023-04-01T15:22:47;4.75;;;1.90;;
69573;SDS011;62840;52.366;5.980;2023-04-01T15:25:45;4.87;;;1.73;;
69573;SDS011;62840;52.366;5.980;2023-04-01T15:28:42;5.03;;;2.08;;
69573;SDS011;62840;52.366;5.980;2023-04-01T15:31:27;3.97;;;1.83;;
69573;SDS011;62840;52.366;5.980;2023-04-01T15:34:16;4.68;;;1.83;;
69573;SDS011;62840;52.366;5.980;2023-04-01T15:36:57;4.57;;;1.83;;
69573;SDS011;62840;52.366;5.980;2023-04-01T15:39:42;3.90;;;1.70;;
69573;SDS011;62840;52.366;5.980;2023-04-01T15:42:24;4.03;;;1.70;;
69573;SDS011;62840;52.366;5.980;2023-04-01T15:45:11;4.20;;;1.98;;
69573;SDS011;62840;52.366;5.980;2023-04-01T15:47:54;4.32;;;1.90;;
69573;SDS011;62840;52.366;5.980;2023-04-01T15:50:30;4.32;;;2.03;;
69573;SDS011;62840;52.366;5.980;2023-04-01T15:53:17;4.23;;;1.70;;
69573;SDS011;62840;52.366;5.980;2023-04-01T15:56:18;4.43;;;1.98;;
69573;SDS011;62840;52.366;5.980;2023-04-01T15:59:04;4.65;;;1.98;;
69573;SDS011;62840;52.366;5.980;2023-04-01T16:01:54;4.07;;;1.83;;
69573;SDS011;62840;52.366;5.980;2023-04-01T16:04:42;4.72;;;1.98;;
69573;SDS011;62840;52.366;5.980;2023-04-01T16:07:23;4.83;;;2.03;;
69573;SDS011;62840;52.366;5.980;2023-04-01T16:10:29;4.15;;;1.95;;
69573;SDS011;62840;52.366;5.980;2023-04-01T16:13:17;4.47;;;2.20;;
69573;SDS011;62840;52.366;5.980;2023-04-01T16:15:59;4.95;;;2.28;;
69573;SDS011;62840;52.366;5.980;2023-04-01T16:18:42;4.57;;;2.15;;
69573;SDS011;62840;52.366;5.980;2023-04-01T16:21:27;4.60;;;2.00;;
69573;SDS011;62840;52.366;5.980;2023-04-01T16:24:12;4.88;;;2.03;;
69573;SDS011;62840;52.366;5.980;2023-04-01T16:26:50;4.80;;;2.45;;
69573;SDS011;62840;52.366;5.980;2023-04-01T16:29:28;4.63;;;2.00;;
69573;SDS011;62840;52.366;5.980;2023-04-01T16:32:14;5.00;;;2.30;;
69573;SDS011;62840;52.366;5.980;2023-04-01T16:34:55;4.67;;;2.33;;
69573;SDS011;62840;52.366;5.980;2023-04-01T16:37:48;4.60;;;2.28;;
69573;SDS011;62840;52.366;5.980;2023-04-01T16:40:24;4.80;;;2.28;;
69573;SDS011;62840;52.366;5.980;2023-04-01T16:43:07;4.47;;;2.05;;
69573;SDS011;62840;52.366;5.980;2023-04-01T16:45:53;4.53;;;1.85;;
69573;SDS011;62840;52.366;5.980;2023-04-01T16:48:52;4.50;;;2.10;;
69573;SDS011;62840;52.366;5.980;2023-04-01T16:51:41;5.13;;;2.38;;
69573;SDS011;62840;52.366;5.980;2023-04-01T16:54:18;5.93;;;2.13;;
69573;SDS011;62840;52.366;5.980;2023-04-01T16:57:01;4.28;;;2.10;;
69573;SDS011;62840;52.366;5.980;2023-04-01T16:59:40;4.70;;;2.40;;
69573;SDS011;62840;52.366;5.980;2023-04-01T17:02:22;5.83;;;2.30;;
69573;SDS011;62840;52.366;5.980;2023-04-01T17:04:57;4.05;;;2.03;;
69573;SDS011;62840;52.366;5.980;2023-04-01T17:07:31;4.30;;;2.03;;
69573;SDS011;62840;52.366;5.980;2023-04-01T17:13:25;4.60;;;2.35;;
69573;SDS011;62840;52.366;5.980;2023-04-01T17:16:10;4.67;;;2.30;;
69573;SDS011;62840;52.366;5.980;2023-04-01T17:19:04;5.07;;;1.98;;
69573;SDS011;62840;52.366;5.980;2023-04-01T17:21:49;3.85;;;2.10;;
69573;SDS011;62840;52.366;5.980;2023-04-01T17:24:32;4.78;;;2.22;;
69573;SDS011;62840;52.366;5.980;2023-04-01T17:27:30;4.47;;;2.20;;
69573;SDS011;62840;52.366;5.980;2023-04-01T17:30:15;4.10;;;2.07;;
69573;SDS011;62840;52.366;5.980;2023-04-01T17:32:57;5.15;;;2.50;;
69573;SDS011;62840;52.366;5.980;2023-04-01T17:35:59;4.78;;;2.30;;
69573;SDS011;62840;52.366;5.980;2023-04-01T17:38:40;4.90;;;2.20;;
69573;SDS011;62840;52.366;5.980;2023-04-01T17:41:28;4.68;;;2.60;;